sensor_id;sensor_type;location;lat;lon;timestamp;pressure;altitude;pressure_sealevel;temperature;humidity
51315;BME280;65787;59.922;10.742;2023-04-28T00:01:05;100918.38;;;8.79;30.35
51315;BME280;65787;59.922;10.742;2023-04-28T00:03:30;100914.50;;;8.82;29.90
51315;BME280;65787;59.922;10.742;2023-04-28T00:05:56;100917.84;;;8.84;29.76
51315;BME280;65787;59.922;10.742;2023-04-28T00:08:21;100917.69;;;8.85;30.10
51315;BME280;65787;59.922;10.742;2023-04-28T00:10:50;100926.88;;;8.91;30.42
51315;BME280;65787;59.922;10.742;2023-04-28T00:13:15;100931.56;;;8.89;31.23
51315;BME280;65787;59.922;10.742;2023-04-28T00:15:40;100928.41;;;8.94;31.35
51315;BME280;65787;59.922;10.742;2023-04-28T00:18:05;100932.41;;;8.89;29.65
51315;BME280;65787;59.922;10.742;2023-04-28T00:20:31;100939.28;;;8.84;30.08
51315;BME280;65787;59.922;10.742;2023-04-28T00:22:56;100936.94;;;8.72;30.28
51315;BME280;65787;59.922;10.742;2023-04-28T00:25:21;100937.81;;;8.65;29.65
51315;BME280;65787;59.922;10.742;2023-04-28T00:27:47;100947.19;;;8.61;30.33
51315;BME280;65787;59.922;10.742;2023-04-28T00:30:12;100948.53;;;8.57;31.06
51315;BME280;65787;59.922;10.742;2023-04-28T00:32:37;100952.22;;;8.64;30.69
51315;BME280;65787;59.922;10.742;2023-04-28T00:35:03;100947.69;;;8.64;30.55
51315;BME280;65787;59.922;10.742;2023-04-28T00:37:28;100949.53;;;8.64;30.29
51315;BME280;65787;59.922;10.742;2023-04-28T00:39:56;100949.53;;;8.56;30.04
51315;BME280;65787;59.922;10.742;2023-04-28T00:42:21;100952.22;;;8.47;30.31
51315;BME280;65787;59.922;10.742;2023-04-28T00:44:47;100969.63;;;8.43;31.25
51315;BME280;65787;59.922;10.742;2023-04-28T00:47:12;100955.50;;;8.41;30.57
51315;BME280;65787;59.922;10.742;2023-04-28T00:49:40;100964.72;;;8.39;30.49
51315;BME280;65787;59.922;10.742;2023-04-28T00:52:05;100959.88;;;8.34;30.38
51315;BME280;65787;59.922;10.742;2023-04-28T00:54:34;100965.41;;;8.32;30.94
51315;BME280;65787;59.922;10.742;2023-04-28T00:57:00;100960.69;;;8.26;30.86
51315;BME280;65787;59.922;10.742;2023-04-28T00:59:26;100962.03;;;8.22;31.16
51315;BME280;65787;59.922;10.742;2023-04-28T01:01:52;100963.38;;;8.18;31.12
51315;BME280;65787;59.922;10.742;2023-04-28T01:04:18;100973.06;;;8.11;31.07
51315;BME280;65787;59.922;10.742;2023-04-28T01:06:44;100968.72;;;8.10;31.75
51315;BME280;65787;59.922;10.742;2023-04-28T01:09:10;100970.53;;;8.09;31.95
51315;BME280;65787;59.922;10.742;2023-04-28T01:11:35;100978.91;;;8.14;31.63
51315;BME280;65787;59.922;10.742;2023-04-28T01:14:01;100971.06;;;8.13;32.36
51315;BME280;65787;59.922;10.742;2023-04-28T01:16:27;100980.25;;;8.10;32.26
51315;BME280;65787;59.922;10.742;2023-04-28T01:18:53;100982.09;;;8.10;32.22
51315;BME280;65787;59.922;10.742;2023-04-28T01:21:27;100978.56;;;8.09;32.10
51315;BME280;65787;59.922;10.742;2023-04-28T01:23:56;100977.91;;;8.07;32.11
51315;BME280;65787;59.922;10.742;2023-04-28T01:26:22;100980.56;;;8.07;31.51
51315;BME280;65787;59.922;10.742;2023-04-28T01:28:47;100976.09;;;8.08;32.11
51315;BME280;65787;59.922;10.742;2023-04-28T01:31:12;100979.59;;;8.08;32.68
51315;BME280;65787;59.922;10.742;2023-04-28T01:33:37;100978.06;;;8.06;32.21
51315;BME280;65787;59.922;10.742;2023-04-28T01:36:03;100978.25;;;8.04;32.28
51315;BME280;65787;59.922;10.742;2023-04-28T01:38:28;100979.41;;;8.02;32.08
51315;BME280;65787;59.922;10.742;2023-04-28T01:40:54;100986.09;;;7.98;32.11
51315;BME280;65787;59.922;10.742;2023-04-28T01:43:19;100987.41;;;7.93;33.08
51315;BME280;65787;59.922;10.742;2023-04-28T01:45:44;100983.72;;;7.86;32.94
51315;BME280;65787;59.922;10.742;2023-04-28T01:48:10;100995.41;;;7.85;33.65
51315;BME280;65787;59.922;10.742;2023-04-28T01:50:35;100993.38;;;7.79;33.49
51315;BME280;65787;59.922;10.742;2023-04-28T01:53:00;100995.19;;;7.70;33.66
51315;BME280;65787;59.922;10.742;2023-04-28T01:55:26;101002.50;;;7.60;33.37
51315;BME280;65787;59.922;10.742;2023-04-28T01:57:51;100993.81;;;7.58;34.53
51315;BME280;65787;59.922;10.742;2023-04-28T02:00:16;100991.16;;;7.66;33.87
51315;BME280;65787;59.922;10.742;2023-04-28T02:02:42;101000.19;;;7.65;33.74
51315;BME280;65787;59.922;10.742;2023-04-28T02:05:07;101002.31;;;7.53;34.23
51315;BME280;65787;59.922;10.742;2023-04-28T02:07:32;101005.09;;;7.44;33.59
51315;BME280;65787;59.922;10.742;2023-04-28T02:09:58;101007.03;;;7.33;33.09
51315;BME280;65787;59.922;10.742;2023-04-28T02:12:23;101003.00;;;7.21;34.00
51315;BME280;65787;59.922;10.742;2023-04-28T02:14:49;101014.63;;;7.12;33.97
51315;BME280;65787;59.922;10.742;2023-04-28T02:17:15;101012.59;;;7.06;33.93
51315;BME280;65787;59.922;10.742;2023-04-28T02:19:42;101014.41;;;7.05;34.11
51315;BME280;65787;59.922;10.742;2023-04-28T02:22:07;101012.06;;;7.02;34.21
51315;BME280;65787;59.922;10.742;2023-04-28T02:24:35;101013.69;;;6.95;34.72
51315;BME280;65787;59.922;10.742;2023-04-28T02:27:02;101015.50;;;6.94;34.25
51315;BME280;65787;59.922;10.742;2023-04-28T02:29:27;101013.00;;;6.93;34.69
51315;BME280;65787;59.922;10.742;2023-04-28T02:31:54;101016.81;;;6.90;34.14
51315;BME280;65787;59.922;10.742;2023-04-28T02:34:19;101017.47;;;6.92;34.10
51315;BME280;65787;59.922;10.742;2023-04-28T02:36:46;101015.66;;;6.93;34.67
51315;BME280;65787;59.922;10.742;2023-04-28T02:39:12;101017.47;;;6.92;34.03
51315;BME280;65787;59.922;10.742;2023-04-28T02:41:37;101014.56;;;7.04;33.64
51315;BME280;65787;59.922;10.742;2023-04-28T02:44:03;101009.28;;;7.12;33.67
51315;BME280;65787;59.922;10.742;2023-04-28T02:46:28;101019.28;;;7.10;33.38
51315;BME280;65787;59.922;10.742;2023-04-28T02:48:54;101024.28;;;7.13;33.71
51315;BME280;65787;59.922;10.742;2023-04-28T02:51:19;101021.84;;;7.20;33.89
51315;BME280;65787;59.922;10.742;2023-04-28T02:53:44;101035.19;;;7.20;33.58
51315;BME280;65787;59.922;10.742;2023-04-28T02:56:10;101027.97;;;7.12;33.90
51315;BME280;65787;59.922;10.742;2023-04-28T02:58:35;101022.78;;;7.10;33.57
51315;BME280;65787;59.922;10.742;2023-04-28T03:01:01;101026.91;;;7.05;34.26
51315;BME280;65787;59.922;10.742;2023-04-28T03:03:26;101021.06;;;7.01;34.29
51315;BME280;65787;59.922;10.742;2023-04-28T03:05:51;101018.38;;;7.01;34.26
51315;BME280;65787;59.922;10.742;2023-04-28T03:08:16;101025.41;;;7.02;34.49
51315;BME280;65787;59.922;10.742;2023-04-28T03:10:43;101030.38;;;6.97;33.83
51315;BME280;65787;59.922;10.742;2023-04-28T03:13:08;101024.66;;;6.92;33.48
51315;BME280;65787;59.922;10.742;2023-04-28T03:15:33;101027.34;;;6.92;34.38
51315;BME280;65787;59.922;10.742;2023-04-28T03:17:59;101028.69;;;6.96;34.05
51315;BME280;65787;59.922;10.742;2023-04-28T03:20:24;101029.91;;;7.02;33.92
51315;BME280;65787;59.922;10.742;2023-04-28T03:22:49;101031.72;;;7.01;33.61
51315;BME280;65787;59.922;10.742;2023-04-28T03:25:15;101038.06;;;7.00;33.83
51315;BME280;65787;59.922;10.742;2023-04-28T03:27:40;101036.09;;;7.02;33.11
51315;BME280;65787;59.922;10.742;2023-04-28T03:30:05;101040.03;;;6.98;34.01
51315;BME280;65787;59.922;10.742;2023-04-28T03:32:31;101045.38;;;6.98;33.71
51315;BME280;65787;59.922;10.742;2023-04-28T03:34:56;101038.38;;;6.97;34.59
51315;BME280;65787;59.922;10.742;2023-04-28T03:37:21;101032.38;;;6.95;33.71
51315;BME280;65787;59.922;10.742;2023-04-28T03:39:47;101036.16;;;6.92;33.10
51315;BME280;65787;59.922;10.742;2023-04-28T03:42:12;101036.16;;;6.92;33.85
51315;BME280;65787;59.922;10.742;2023-04-28T03:44:37;101037.72;;;6.95;33.49
51315;BME280;65787;59.922;10.742;2023-04-28T03:47:03;101045.56;;;6.96;33.70
51315;BME280;65787;59.922;10.742;2023-04-28T03:49:28;101044.56;;;6.97;33.98
51315;BME280;65787;59.922;10.742;2023-04-28T03:51:54;101043.41;;;7.00;33.49
51315;BME280;65787;59.922;10.742;2023-04-28T03:54:19;101040.44;;;7.03;33.78
51315;BME280;65787;59.922;10.742;2023-04-28T03:56:44;101042.94;;;7.05;33.60
51315;BME280;65787;59.922;10.742;2023-04-28T03:59:10;101043.47;;;7.08;33.51
51315;BME280;65787;59.922;10.742;2023-04-28T04:01:36;101041.69;;;7.17;33.60
51315;BME280;65787;59.922;10.742;2023-04-28T04:04:01;101038.84;;;7.18;33.33
51315;BME280;65787;59.922;10.742;2023-04-28T04:06:27;101044.91;;;7.21;33.13
51315;BME280;65787;59.922;10.742;2023-04-28T04:08:52;101041.91;;;7.24;33.58
51315;BME280;65787;59.922;10.742;2023-04-28T04:11:17;101038.41;;;7.23;32.82
51315;BME280;65787;59.922;10.742;2023-04-28T04:13:42;101043.44;;;7.26;32.81
51315;BME280;65787;59.922;10.742;2023-04-28T04:16:08;101045.91;;;7.28;32.29
51315;BME280;65787;59.922;10.742;2023-04-28T04:18:34;101042.13;;;7.30;32.87
51315;BME280;65787;59.922;10.742;2023-04-28T04:20:59;101044.16;;;7.36;32.87
51315;BME280;65787;59.922;10.742;2023-04-28T04:23:24;101046.34;;;7.41;32.52
51315;BME280;65787;59.922;10.742;2023-04-28T04:25:50;101045.50;;;7.41;32.94
51315;BME280;65787;59.922;10.742;2023-04-28T04:28:15;101053.88;;;7.46;32.59
51315;BME280;65787;59.922;10.742;2023-04-28T04:30:41;101053.72;;;7.47;32.81
51315;BME280;65787;59.922;10.742;2023-04-28T04:33:06;101053.72;;;7.47;32.37
51315;BME280;65787;59.922;10.742;2023-04-28T04:35:32;101059.44;;;7.52;32.45
51315;BME280;65787;59.922;10.742;2023-04-28T04:37:58;101054.44;;;7.57;31.90
51315;BME280;65787;59.922;10.742;2023-04-28T04:40:24;101057.97;;;7.58;31.90
51315;BME280;65787;59.922;10.742;2023-04-28T04:42:49;101053.44;;;7.59;32.38
51315;BME280;65787;59.922;10.742;2023-04-28T04:45:15;101068.84;;;7.65;33.94
51315;BME280;65787;59.922;10.742;2023-04-28T04:47:40;101065.38;;;7.72;33.34
51315;BME280;65787;59.922;10.742;2023-04-28T04:50:06;101066.41;;;7.80;32.73
51315;BME280;65787;59.922;10.742;2023-04-28T04:52:31;101071.44;;;7.83;32.36
51315;BME280;65787;59.922;10.742;2023-04-28T04:54:56;101071.13;;;7.86;32.22
51315;BME280;65787;59.922;10.742;2023-04-28T04:57:22;101068.97;;;7.89;32.90
51315;BME280;65787;59.922;10.742;2023-04-28T04:59:48;101068.63;;;7.92;32.93
51315;BME280;65787;59.922;10.742;2023-04-28T05:02:13;101068.31;;;7.95;32.25
51315;BME280;65787;59.922;10.742;2023-04-28T05:04:38;101074.53;;;8.04;32.99
51315;BME280;65787;59.922;10.742;2023-04-28T05:07:04;101073.06;;;8.10;31.86
51315;BME280;65787;59.922;10.742;2023-04-28T05:09:29;101070.91;;;8.13;32.21
51315;BME280;65787;59.922;10.742;2023-04-28T05:11:56;101070.53;;;8.08;31.76
51315;BME280;65787;59.922;10.742;2023-04-28T05:14:21;101075.06;;;8.08;32.03
51315;BME280;65787;59.922;10.742;2023-04-28T05:16:47;101080.25;;;8.18;32.00
51315;BME280;65787;59.922;10.742;2023-04-28T05:19:12;101076.72;;;8.17;32.26
51315;BME280;65787;59.922;10.742;2023-04-28T05:21:37;101079.81;;;8.30;32.08
51315;BME280;65787;59.922;10.742;2023-04-28T05:24:03;101074.16;;;8.42;31.50
51315;BME280;65787;59.922;10.742;2023-04-28T05:26:28;101077.50;;;8.44;32.11
51315;BME280;65787;59.922;10.742;2023-04-28T05:28:53;101079.16;;;8.45;31.73
51315;BME280;65787;59.922;10.742;2023-04-28T05:31:19;101074.31;;;8.48;31.02
51315;BME280;65787;59.922;10.742;2023-04-28T05:33:44;101071.50;;;8.50;31.38
51315;BME280;65787;59.922;10.742;2023-04-28T05:36:10;101075.00;;;8.50;30.93
51315;BME280;65787;59.922;10.742;2023-04-28T05:38:36;101073.34;;;8.58;31.51
51315;BME280;65787;59.922;10.742;2023-04-28T05:41:01;101073.53;;;8.64;31.60
51315;BME280;65787;59.922;10.742;2023-04-28T05:43:26;101076.72;;;8.68;31.19
51315;BME280;65787;59.922;10.742;2023-04-28T05:45:52;101072.00;;;8.78;31.43
51315;BME280;65787;59.922;10.742;2023-04-28T05:48:17;101078.91;;;8.81;31.13
51315;BME280;65787;59.922;10.742;2023-04-28T05:50:43;101079.38;;;8.93;31.31
51315;BME280;65787;59.922;10.742;2023-04-28T05:53:08;101085.25;;;9.04;31.43
51315;BME280;65787;59.922;10.742;2023-04-28T05:55:33;101080.91;;;9.03;31.60
51315;BME280;65787;59.922;10.742;2023-04-28T05:58:00;101086.09;;;9.05;32.20
51315;BME280;65787;59.922;10.742;2023-04-28T06:00:26;101077.34;;;9.19;30.97
51315;BME280;65787;59.922;10.742;2023-04-28T06:02:51;101078.19;;;9.28;30.77
51315;BME280;65787;59.922;10.742;2023-04-28T06:05:16;101076.34;;;9.37;31.17
51315;BME280;65787;59.922;10.742;2023-04-28T06:07:42;101068.44;;;9.43;30.47
51315;BME280;65787;59.922;10.742;2023-04-28T06:10:07;101078.81;;;9.46;31.02
51315;BME280;65787;59.922;10.742;2023-04-28T06:12:33;101078.63;;;9.56;30.76
51315;BME280;65787;59.922;10.742;2023-04-28T06:14:58;101079.66;;;9.55;30.64
51315;BME280;65787;59.922;10.742;2023-04-28T06:17:23;101076.75;;;9.65;30.21
51315;BME280;65787;59.922;10.742;2023-04-28T06:19:49;101073.88;;;9.75;30.35
51315;BME280;65787;59.922;10.742;2023-04-28T06:22:17;101073.69;;;9.84;30.20
51315;BME280;65787;59.922;10.742;2023-04-28T06:24:43;101075.19;;;9.87;30.15
51315;BME280;65787;59.922;10.742;2023-04-28T06:27:08;101075.34;;;9.94;30.20
51315;BME280;65787;59.922;10.742;2023-04-28T06:29:34;101076.66;;;9.98;30.04
51315;BME280;65787;59.922;10.742;2023-04-28T06:31:59;101078.78;;;10.02;30.83
51315;BME280;65787;59.922;10.742;2023-04-28T06:34:24;101078.22;;;10.15;30.44
51315;BME280;65787;59.922;10.742;2023-04-28T06:36:54;101076.88;;;10.19;30.05
51315;BME280;65787;59.922;10.742;2023-04-28T06:39:21;101073.84;;;10.22;29.92
51315;BME280;65787;59.922;10.742;2023-04-28T06:41:46;101078.66;;;10.35;30.32
51315;BME280;65787;59.922;10.742;2023-04-28T06:44:11;101070.44;;;10.28;29.34
51315;BME280;65787;59.922;10.742;2023-04-28T06:46:37;101074.44;;;10.41;29.75
51315;BME280;65787;59.922;10.742;2023-04-28T06:49:02;101079.09;;;10.47;31.10
51315;BME280;65787;59.922;10.742;2023-04-28T06:51:29;101069.69;;;10.51;30.59
51315;BME280;65787;59.922;10.742;2023-04-28T06:53:54;101078.38;;;10.53;30.69
51315;BME280;65787;59.922;10.742;2023-04-28T06:56:19;101091.19;;;10.43;30.69
51315;BME280;65787;59.922;10.742;2023-04-28T06:58:45;101086.66;;;10.43;31.93
51315;BME280;65787;59.922;10.742;2023-04-28T07:01:10;101086.78;;;10.50;30.65
51315;BME280;65787;59.922;10.742;2023-04-28T07:03:35;101087.69;;;10.42;30.30
51315;BME280;65787;59.922;10.742;2023-04-28T07:06:01;101086.91;;;10.25;30.28
51315;BME280;65787;59.922;10.742;2023-04-28T07:08:27;101085.88;;;10.26;30.46
51315;BME280;65787;59.922;10.742;2023-04-28T07:10:54;101088.81;;;10.48;30.94
51315;BME280;65787;59.922;10.742;2023-04-28T07:13:20;101083.38;;;10.56;30.33
51315;BME280;65787;59.922;10.742;2023-04-28T07:15:46;101094.59;;;10.60;30.38
51315;BME280;65787;59.922;10.742;2023-04-28T07:18:11;101097.22;;;10.45;30.21
51315;BME280;65787;59.922;10.742;2023-04-28T07:20:36;101080.69;;;10.56;30.45
51315;BME280;65787;59.922;10.742;2023-04-28T07:23:02;101081.41;;;10.50;30.74
51315;BME280;65787;59.922;10.742;2023-04-28T07:25:27;101091.94;;;10.60;31.34
51315;BME280;65787;59.922;10.742;2023-04-28T07:27:52;101085.19;;;10.64;30.73
51315;BME280;65787;59.922;10.742;2023-04-28T07:30:18;101093.38;;;10.71;30.69
51315;BME280;65787;59.922;10.742;2023-04-28T07:32:43;101090.06;;;10.60;30.76
51315;BME280;65787;59.922;10.742;2023-04-28T07:35:09;101086.09;;;10.79;30.85
51315;BME280;65787;59.922;10.742;2023-04-28T07:37:35;101080.34;;;10.82;31.59
51315;BME280;65787;59.922;10.742;2023-04-28T07:40:00;101077.78;;;10.89;30.20
51315;BME280;65787;59.922;10.742;2023-04-28T07:42:26;101077.31;;;10.85;30.08
51315;BME280;65787;59.922;10.742;2023-04-28T07:44:51;101076.34;;;11.01;30.13
51315;BME280;65787;59.922;10.742;2023-04-28T07:47:16;101075.66;;;10.99;29.91
51315;BME280;65787;59.922;10.742;2023-04-28T07:49:42;101073.91;;;11.07;30.65
51315;BME280;65787;59.922;10.742;2023-04-28T07:52:07;101071.22;;;11.07;29.12
51315;BME280;65787;59.922;10.742;2023-04-28T07:54:33;101060.44;;;11.15;30.00
51315;BME280;65787;59.922;10.742;2023-04-28T07:56:59;101065.72;;;11.23;29.79
51315;BME280;65787;59.922;10.742;2023-04-28T07:59:24;101067.22;;;11.26;28.87
51315;BME280;65787;59.922;10.742;2023-04-28T08:01:50;101076.00;;;11.34;29.20
51315;BME280;65787;59.922;10.742;2023-04-28T08:04:15;101067.59;;;11.52;28.88
51315;BME280;65787;59.922;10.742;2023-04-28T08:06:41;101061.28;;;11.60;28.83
51315;BME280;65787;59.922;10.742;2023-04-28T08:09:06;101063.69;;;11.55;27.29
51315;BME280;65787;59.922;10.742;2023-04-28T08:11:31;101057.13;;;11.72;27.48
51315;BME280;65787;59.922;10.742;2023-04-28T08:13:57;101071.88;;;11.76;27.46
51315;BME280;65787;59.922;10.742;2023-04-28T08:16:26;101069.19;;;11.76;26.84
51315;BME280;65787;59.922;10.742;2023-04-28T08:18:51;101064.91;;;11.97;26.51
51315;BME280;65787;59.922;10.742;2023-04-28T08:21:17;101064.72;;;11.98;26.61
51315;BME280;65787;59.922;10.742;2023-04-28T08:23:43;101069.00;;;12.29;26.68
51315;BME280;65787;59.922;10.742;2023-04-28T08:26:09;101069.19;;;12.43;26.08
51315;BME280;65787;59.922;10.742;2023-04-28T08:28:34;101062.19;;;12.48;26.82
51315;BME280;65787;59.922;10.742;2023-04-28T08:31:00;101074.63;;;12.49;26.43
51315;BME280;65787;59.922;10.742;2023-04-28T08:33:25;101064.59;;;12.65;25.38
51315;BME280;65787;59.922;10.742;2023-04-28T08:35:50;101064.50;;;12.73;25.76
51315;BME280;65787;59.922;10.742;2023-04-28T08:38:16;101066.03;;;12.82;25.52
51315;BME280;65787;59.922;10.742;2023-04-28T08:40:42;101066.16;;;12.95;25.48
51315;BME280;65787;59.922;10.742;2023-04-28T08:43:07;101060.09;;;13.15;25.00
51315;BME280;65787;59.922;10.742;2023-04-28T08:45:43;101063.56;;;13.09;25.13
51315;BME280;65787;59.922;10.742;2023-04-28T08:48:18;101055.66;;;13.07;25.38
51315;BME280;65787;59.922;10.742;2023-04-28T08:50:51;101052.00;;;13.15;25.63
51315;BME280;65787;59.922;10.742;2023-04-28T08:53:21;101057.41;;;13.15;24.87
51315;BME280;65787;59.922;10.742;2023-04-28T08:55:47;101054.03;;;13.34;25.49
51315;BME280;65787;59.922;10.742;2023-04-28T08:58:14;101050.50;;;13.34;24.90
51315;BME280;65787;59.922;10.742;2023-04-28T09:00:39;101054.97;;;13.48;25.26
51315;BME280;65787;59.922;10.742;2023-04-28T09:03:04;101052.91;;;13.57;24.89
51315;BME280;65787;59.922;10.742;2023-04-28T09:05:30;101055.69;;;13.70;24.79
51315;BME280;65787;59.922;10.742;2023-04-28T09:07:56;101046.00;;;13.83;25.37
51315;BME280;65787;59.922;10.742;2023-04-28T09:10:22;101047.25;;;13.87;25.00
51315;BME280;65787;59.922;10.742;2023-04-28T09:12:49;101039.56;;;13.84;25.08
51315;BME280;65787;59.922;10.742;2023-04-28T09:15:28;101042.72;;;13.94;24.79
51315;BME280;65787;59.922;10.742;2023-04-28T09:17:55;101039.84;;;14.02;24.66
51315;BME280;65787;59.922;10.742;2023-04-28T09:22:46;101048.84;;;14.23;24.45
51315;BME280;65787;59.922;10.742;2023-04-28T09:25:12;101040.16;;;14.41;25.09
51315;BME280;65787;59.922;10.742;2023-04-28T09:27:37;101038.09;;;14.49;24.97
51315;BME280;65787;59.922;10.742;2023-04-28T09:30:03;101033.06;;;14.33;23.92
51315;BME280;65787;59.922;10.742;2023-04-28T09:32:28;101031.91;;;14.62;24.16
51315;BME280;65787;59.922;10.742;2023-04-28T09:34:54;101030.44;;;14.66;23.95
51315;BME280;65787;59.922;10.742;2023-04-28T09:37:22;101030.06;;;14.89;23.98
51315;BME280;65787;59.922;10.742;2023-04-28T09:39:51;101024.63;;;15.03;23.32
51315;BME280;65787;59.922;10.742;2023-04-28T09:42:35;101024.84;;;15.01;23.12
51315;BME280;65787;59.922;10.742;2023-04-28T09:45:02;101020.22;;;15.15;23.14
51315;BME280;65787;59.922;10.742;2023-04-28T09:47:28;101022.88;;;15.48;23.32
51315;BME280;65787;59.922;10.742;2023-04-28T09:49:57;101012.03;;;15.55;22.93
51315;BME280;65787;59.922;10.742;2023-04-28T09:52:24;101014.28;;;15.72;22.87
51315;BME280;65787;59.922;10.742;2023-04-28T09:54:50;101017.88;;;15.59;21.83
51315;BME280;65787;59.922;10.742;2023-04-28T09:57:16;101011.78;;;15.70;22.96
51315;BME280;65787;59.922;10.742;2023-04-28T09:59:43;101005.09;;;15.73;22.11
51315;BME280;65787;59.922;10.742;2023-04-28T10:02:11;101013.72;;;16.08;21.65
51315;BME280;65787;59.922;10.742;2023-04-28T10:04:37;101008.56;;;16.38;21.86
51315;BME280;65787;59.922;10.742;2023-04-28T10:07:03;101005.03;;;16.63;21.72
51315;BME280;65787;59.922;10.742;2023-04-28T10:09:28;100996.16;;;16.74;21.50
51315;BME280;65787;59.922;10.742;2023-04-28T10:11:55;100999.66;;;17.07;21.57
51315;BME280;65787;59.922;10.742;2023-04-28T10:14:21;101004.38;;;17.18;22.40
51315;BME280;65787;59.922;10.742;2023-04-28T10:16:47;101002.72;;;17.17;24.11
51315;BME280;65787;59.922;10.742;2023-04-28T10:19:16;100996.84;;;17.20;21.58
51315;BME280;65787;59.922;10.742;2023-04-28T10:21:42;100997.06;;;16.93;21.98
51315;BME280;65787;59.922;10.742;2023-04-28T10:24:14;101000.78;;;16.99;21.67
51315;BME280;65787;59.922;10.742;2023-04-28T10:29:25;101002.81;;;16.78;21.76
51315;BME280;65787;59.922;10.742;2023-04-28T10:34:36;100986.28;;;17.30;21.34
51315;BME280;65787;59.922;10.742;2023-04-28T10:37:01;100990.44;;;17.14;20.48
51315;BME280;65787;59.922;10.742;2023-04-28T10:39:26;100973.41;;;17.26;21.03
51315;BME280;65787;59.922;10.742;2023-04-28T10:41:52;100976.25;;;17.49;21.00
51315;BME280;65787;59.922;10.742;2023-04-28T10:47:01;100971.25;;;17.83;20.90
51315;BME280;65787;59.922;10.742;2023-04-28T10:57:40;100963.19;;;18.49;18.93
51315;BME280;65787;59.922;10.742;2023-04-28T11:00:27;100974.56;;;18.57;18.67
51315;BME280;65787;59.922;10.742;2023-04-28T11:02:51;100962.66;;;18.82;18.64
51315;BME280;65787;59.922;10.742;2023-04-28T11:05:18;100970.34;;;19.21;19.37
51315;BME280;65787;59.922;10.742;2023-04-28T11:10:56;100967.75;;;19.66;18.25
51315;BME280;65787;59.922;10.742;2023-04-28T11:13:26;100965.78;;;19.90;17.79
51315;BME280;65787;59.922;10.742;2023-04-28T11:16:01;100968.53;;;20.19;18.08
51315;BME280;65787;59.922;10.742;2023-04-28T11:18:28;100963.00;;;20.31;18.80
51315;BME280;65787;59.922;10.742;2023-04-28T11:20:54;100959.44;;;20.47;20.88
51315;BME280;65787;59.922;10.742;2023-04-28T11:23:21;100972.53;;;20.62;17.35
51315;BME280;65787;59.922;10.742;2023-04-28T11:25:54;100968.16;;;20.61;18.03
51315;BME280;65787;59.922;10.742;2023-04-28T11:28:19;100969.72;;;21.30;18.50
51315;BME280;65787;59.922;10.742;2023-04-28T11:30:45;100966.94;;;21.69;18.13
51315;BME280;65787;59.922;10.742;2023-04-28T11:33:10;100955.97;;;21.91;16.95
51315;BME280;65787;59.922;10.742;2023-04-28T11:35:42;100954.28;;;22.12;16.75
51315;BME280;65787;59.922;10.742;2023-04-28T11:38:07;100954.03;;;22.41;17.16
51315;BME280;65787;59.922;10.742;2023-04-28T11:40:33;100952.47;;;22.50;16.25
51315;BME280;65787;59.922;10.742;2023-04-28T11:42:58;100958.28;;;22.59;16.01
51315;BME280;65787;59.922;10.742;2023-04-28T11:45:24;100950.72;;;22.76;15.48
51315;BME280;65787;59.922;10.742;2023-04-28T11:47:49;100944.28;;;22.93;18.13
51315;BME280;65787;59.922;10.742;2023-04-28T11:50:14;100951.38;;;22.51;15.57
51315;BME280;65787;59.922;10.742;2023-04-28T11:52:49;100952.56;;;22.66;15.09
51315;BME280;65787;59.922;10.742;2023-04-28T11:55:17;100953.72;;;22.70;15.61
51315;BME280;65787;59.922;10.742;2023-04-28T11:57:43;100951.00;;;22.75;16.42
51315;BME280;65787;59.922;10.742;2023-04-28T12:00:15;100950.41;;;23.05;17.19
51315;BME280;65787;59.922;10.742;2023-04-28T12:02:46;100940.84;;;23.13;15.70
51315;BME280;65787;59.922;10.742;2023-04-28T12:05:11;100944.78;;;23.32;15.72
51315;BME280;65787;59.922;10.742;2023-04-28T12:07:40;100940.63;;;23.25;14.67
51315;BME280;65787;59.922;10.742;2023-04-28T12:10:10;100945.41;;;23.55;16.03
51315;BME280;65787;59.922;10.742;2023-04-28T12:12:36;100945.84;;;24.10;15.49
51315;BME280;65787;59.922;10.742;2023-04-28T12:17:30;100926.09;;;24.23;14.33
51315;BME280;65787;59.922;10.742;2023-04-28T12:19:56;100931.84;;;24.06;14.16
51315;BME280;65787;59.922;10.742;2023-04-28T12:22:23;100942.03;;;24.57;17.60
51315;BME280;65787;59.922;10.742;2023-04-28T12:27:32;100939.09;;;25.44;15.59
51315;BME280;65787;59.922;10.742;2023-04-28T12:29:58;100932.00;;;25.93;13.48
51315;BME280;65787;59.922;10.742;2023-04-28T12:32:40;100929.63;;;26.50;12.83
51315;BME280;65787;59.922;10.742;2023-04-28T12:35:06;100930.41;;;26.85;13.03
51315;BME280;65787;59.922;10.742;2023-04-28T12:37:31;100922.09;;;27.14;13.39
51315;BME280;65787;59.922;10.742;2023-04-28T12:39:57;100926.63;;;27.05;11.82
51315;BME280;65787;59.922;10.742;2023-04-28T12:42:22;100924.53;;;28.02;12.04
51315;BME280;65787;59.922;10.742;2023-04-28T12:44:48;100919.56;;;28.51;13.10
51315;BME280;65787;59.922;10.742;2023-04-28T12:47:14;100915.00;;;28.60;10.28
51315;BME280;65787;59.922;10.742;2023-04-28T12:49:42;100914.41;;;28.30;9.55
51315;BME280;65787;59.922;10.742;2023-04-28T12:52:08;100920.38;;;28.37;11.06
51315;BME280;65787;59.922;10.742;2023-04-28T12:54:33;100919.88;;;28.96;9.59
51315;BME280;65787;59.922;10.742;2023-04-28T12:56:58;100915.88;;;28.74;9.13
51315;BME280;65787;59.922;10.742;2023-04-28T12:59:24;100913.84;;;29.36;8.78
51315;BME280;65787;59.922;10.742;2023-04-28T13:01:49;100917.94;;;29.38;8.31
51315;BME280;65787;59.922;10.742;2023-04-28T13:04:16;100911.06;;;29.49;7.90
51315;BME280;65787;59.922;10.742;2023-04-28T13:06:42;100910.31;;;29.58;7.96